sensor_id;sensor_type;location;lat;lon;timestamp;pressure;altitude;pressure_sealevel;temperature;humidity
9077;BME280;4574;51.072;17.174;2023-07-31T00:00:06;99808.06;;;18.13;100.00
9077;BME280;4574;51.072;17.174;2023-07-31T00:02:37;99812.41;;;18.14;100.00
9077;BME280;4574;51.072;17.174;2023-07-31T00:05:08;99810.34;;;18.16;100.00
9077;BME280;4574;51.072;17.174;2023-07-31T00:07:37;99807.47;;;18.18;100.00
9077;BME280;4574;51.072;17.174;2023-07-31T00:10:06;99801.88;;;18.19;100.00
9077;BME280;4574;51.072;17.174;2023-07-31T00:12:34;99808.28;;;18.18;100.00
9077;BME280;4574;51.072;17.174;2023-07-31T00:15:04;99815.06;;;18.14;100.00
9077;BME280;4574;51.072;17.174;2023-07-31T00:17:32;99809.13;;;18.19;100.00
9077;BME280;4574;51.072;17.174;2023-07-31T00:20:01;99811.59;;;18.14;100.00
9077;BME280;4574;51.072;17.174;2023-07-31T00:22:31;99813.03;;;18.16;100.00
9077;BME280;4574;51.072;17.174;2023-07-31T00:24:59;99821.28;;;18.21;100.00
9077;BME280;4574;51.072;17.174;2023-07-31T00:27:28;99820.25;;;18.22;100.00
9077;BME280;4574;51.072;17.174;2023-07-31T00:29:56;99825.22;;;18.25;100.00
9077;BME280;4574;51.072;17.174;2023-07-31T00:32:24;99818.03;;;18.26;100.00
9077;BME280;4574;51.072;17.174;2023-07-31T00:34:53;99820.28;;;18.29;100.00
9077;BME280;4574;51.072;17.174;2023-07-31T00:37:21;99822.34;;;18.33;100.00
9077;BME280;4574;51.072;17.174;2023-07-31T00:39:51;99821.31;;;18.28;100.00
9077;BME280;4574;51.072;17.174;2023-07-31T00:42:20;99819.63;;;18.20;100.00
9077;BME280;4574;51.072;17.174;2023-07-31T00:44:48;99816.16;;;18.26;100.00
9077;BME280;4574;51.072;17.174;2023-07-31T00:47:17;99817.38;;;18.30;100.00
9077;BME280;4574;51.072;17.174;2023-07-31T00:49:45;99824.63;;;18.30;100.00
9077;BME280;4574;51.072;17.174;2023-07-31T00:52:14;99816.59;;;18.30;100.00
9077;BME280;4574;51.072;17.174;2023-07-31T00:54:43;99816.59;;;18.30;100.00
9077;BME280;4574;51.072;17.174;2023-07-31T00:57:13;99818.41;;;18.29;100.00
9077;BME280;4574;51.072;17.174;2023-07-31T00:59:41;99815.13;;;18.27;100.00
9077;BME280;4574;51.072;17.174;2023-07-31T01:02:10;99807.66;;;18.16;100.00
9077;BME280;4574;51.072;17.174;2023-07-31T01:04:39;99805.59;;;18.18;100.00
9077;BME280;4574;51.072;17.174;2023-07-31T01:07:16;99805.19;;;18.08;100.00
9077;BME280;4574;51.072;17.174;2023-07-31T01:09:52;99805.63;;;18.12;100.00
9077;BME280;4574;51.072;17.174;2023-07-31T01:12:27;99807.88;;;18.02;100.00
9077;BME280;4574;51.072;17.174;2023-07-31T01:15:04;99807.44;;;17.98;100.00
9077;BME280;4574;51.072;17.174;2023-07-31T01:17:33;99806.41;;;17.99;100.00
9077;BME280;4574;51.072;17.174;2023-07-31T01:20:03;99814.44;;;17.93;100.00
9077;BME280;4574;51.072;17.174;2023-07-31T01:22:59;99808.03;;;17.87;100.00
9077;BME280;4574;51.072;17.174;2023-07-31T01:25:54;99799.81;;;17.95;100.00
9077;BME280;4574;51.072;17.174;2023-07-31T01:28:30;99802.09;;;17.92;100.00
9077;BME280;4574;51.072;17.174;2023-07-31T01:31:02;99808.47;;;17.97;100.00
9077;BME280;4574;51.072;17.174;2023-07-31T01:33:33;99817.13;;;17.99;100.00
9077;BME280;4574;51.072;17.174;2023-07-31T01:36:03;99817.56;;;18.03;100.00
9077;BME280;4574;51.072;17.174;2023-07-31T01:38:32;99815.50;;;18.05;100.00
9077;BME280;4574;51.072;17.174;2023-07-31T01:41:02;99824.16;;;18.07;100.00
9077;BME280;4574;51.072;17.174;2023-07-31T01:43:30;99815.69;;;18.03;100.00
9077;BME280;4574;51.072;17.174;2023-07-31T01:45:59;99822.91;;;18.03;100.00
9077;BME280;4574;51.072;17.174;2023-07-31T01:48:28;99813.41;;;18.00;100.00
9077;BME280;4574;51.072;17.174;2023-07-31T01:51:02;99815.69;;;17.97;100.00
9077;BME280;4574;51.072;17.174;2023-07-31T01:53:31;99817.13;;;17.99;100.00
9077;BME280;4574;51.072;17.174;2023-07-31T01:56:01;99811.75;;;17.99;100.00
9077;BME280;4574;51.072;17.174;2023-07-31T01:58:30;99820.41;;;18.01;100.00
9077;BME280;4574;51.072;17.174;2023-07-31T02:00:59;99811.34;;;18.02;100.00
9077;BME280;4574;51.072;17.174;2023-07-31T02:03:28;99810.13;;;17.98;100.00
9077;BME280;4574;51.072;17.174;2023-07-31T02:05:57;99803.91;;;17.91;100.00
9077;BME280;4574;51.072;17.174;2023-07-31T02:08:25;99807.66;;;17.97;100.00
9077;BME280;4574;51.072;17.174;2023-07-31T02:10:54;99817.13;;;17.93;100.00
9077;BME280;4574;51.072;17.174;2023-07-31T02:13:24;99816.09;;;17.94;100.00
9077;BME280;4574;51.072;17.174;2023-07-31T02:15:52;99821.22;;;17.95;100.00
9077;BME280;4574;51.072;17.174;2023-07-31T02:18:21;99806.81;;;17.96;100.00
9077;BME280;4574;51.072;17.174;2023-07-31T02:20:50;99814.66;;;17.98;100.00
9077;BME280;4574;51.072;17.174;2023-07-31T02:23:19;99810.13;;;17.98;100.00
9077;BME280;4574;51.072;17.174;2023-07-31T02:25:48;99816.31;;;17.99;100.00
9077;BME280;4574;51.072;17.174;2023-07-31T02:28:16;99817.97;;;18.00;100.00
9077;BME280;4574;51.072;17.174;2023-07-31T02:30:46;99817.97;;;18.00;100.00
9077;BME280;4574;51.072;17.174;2023-07-31T02:33:15;99822.88;;;17.96;100.00
9077;BME280;4574;51.072;17.174;2023-07-31T02:35:44;99816.31;;;17.99;100.00
9077;BME280;4574;51.072;17.174;2023-07-31T02:38:13;99817.13;;;17.99;100.00
9077;BME280;4574;51.072;17.174;2023-07-31T02:40:41;99805.16;;;17.95;100.00
9077;BME280;4574;51.072;17.174;2023-07-31T02:43:10;99823.72;;;17.97;100.00
9077;BME280;4574;51.072;17.174;2023-07-31T02:45:38;99816.69;;;17.89;100.00
9077;BME280;4574;51.072;17.174;2023-07-31T02:48:08;99814.84;;;17.90;100.00
9077;BME280;4574;51.072;17.174;2023-07-31T02:50:37;99812.59;;;17.87;100.00
9077;BME280;4574;51.072;17.174;2023-07-31T02:53:05;99817.50;;;17.83;100.00
9077;BME280;4574;51.072;17.174;2023-07-31T02:55:34;99812.94;;;17.84;100.00
9077;BME280;4574;51.072;17.174;2023-07-31T02:58:02;99816.06;;;17.87;100.00
9077;BME280;4574;51.072;17.174;2023-07-31T03:00:31;99817.53;;;17.90;100.00
9077;BME280;4574;51.072;17.174;2023-07-31T03:02:59;99822.66;;;17.91;100.00
9077;BME280;4574;51.072;17.174;2023-07-31T03:05:32;99827.00;;;17.92;100.00
9077;BME280;4574;51.072;17.174;2023-07-31T03:08:01;99825.97;;;17.93;100.00
9077;BME280;4574;51.072;17.174;2023-07-31T03:10:30;99824.13;;;17.94;100.00
9077;BME280;4574;51.072;17.174;2023-07-31T03:12:59;99830.28;;;17.94;100.00
9077;BME280;4574;51.072;17.174;2023-07-31T03:15:27;99830.28;;;17.94;100.00
9077;BME280;4574;51.072;17.174;2023-07-31T03:17:56;99835.66;;;17.94;100.00
9077;BME280;4574;51.072;17.174;2023-07-31T03:20:24;99829.06;;;17.90;100.00
9077;BME280;4574;51.072;17.174;2023-07-31T03:22:54;99829.06;;;17.90;100.00
9077;BME280;4574;51.072;17.174;2023-07-31T03:25:23;99825.75;;;17.88;100.00
9077;BME280;4574;51.072;17.174;2023-07-31T03:27:51;99820.38;;;17.82;100.00
9077;BME280;4574;51.072;17.174;2023-07-31T03:30:20;99830.66;;;17.85;100.00
9077;BME280;4574;51.072;17.174;2023-07-31T03:32:49;99837.91;;;17.84;100.00
9077;BME280;4574;51.072;17.174;2023-07-31T03:35:17;99831.50;;;17.85;100.00
9077;BME280;4574;51.072;17.174;2023-07-31T03:37:46;99827.38;;;17.83;100.00
9077;BME280;4574;51.072;17.174;2023-07-31T03:40:16;99821.84;;;17.84;100.00
9077;BME280;4574;51.072;17.174;2023-07-31T03:42:44;99830.28;;;17.81;100.00
9077;BME280;4574;51.072;17.174;2023-07-31T03:45:13;99828.63;;;17.80;100.00
9077;BME280;4574;51.072;17.174;2023-07-31T03:47:41;99825.31;;;17.78;100.00
9077;BME280;4574;51.072;17.174;2023-07-31T03:50:10;99822.00;;;17.76;100.00
9077;BME280;4574;51.072;17.174;2023-07-31T03:52:38;99824.06;;;17.74;100.00
9077;BME280;4574;51.072;17.174;2023-07-31T03:55:07;99825.72;;;17.75;100.00
9077;BME280;4574;51.072;17.174;2023-07-31T03:57:37;99828.41;;;17.75;100.00
9077;BME280;4574;51.072;17.174;2023-07-31T04:00:08;99828.41;;;17.75;100.00
9077;BME280;4574;51.072;17.174;2023-07-31T04:02:36;99826.75;;;17.74;100.00
9077;BME280;4574;51.072;17.174;2023-07-31T04:05:05;99821.97;;;17.70;100.00
9077;BME280;4574;51.072;17.174;2023-07-31T04:07:34;99819.53;;;17.68;100.00
9077;BME280;4574;51.072;17.174;2023-07-31T04:10:03;99822.59;;;17.65;100.00
9077;BME280;4574;51.072;17.174;2023-07-31T04:12:32;99819.94;;;17.65;100.00
9077;BME280;4574;51.072;17.174;2023-07-31T04:15:02;99819.97;;;17.78;100.00
9077;BME280;4574;51.072;17.174;2023-07-31T04:17:30;99817.47;;;17.77;100.00
9077;BME280;4574;51.072;17.174;2023-07-31T04:19:59;99822.00;;;17.76;100.00
9077;BME280;4574;51.072;17.174;2023-07-31T04:22:28;99805.09;;;17.69;100.00
9077;BME280;4574;51.072;17.174;2023-07-31T04:24:56;99818.72;;;17.74;100.00
9077;BME280;4574;51.072;17.174;2023-07-31T04:27:25;99819.53;;;17.75;100.00
9077;BME280;4574;51.072;17.174;2023-07-31T04:29:54;99813.38;;;17.74;100.00
9077;BME280;4574;51.072;17.174;2023-07-31T04:32:24;99822.00;;;17.76;100.00
9077;BME280;4574;51.072;17.174;2023-07-31T04:34:53;99823.66;;;17.77;100.00
9077;BME280;4574;51.072;17.174;2023-07-31T04:37:21;99831.06;;;17.75;100.00
9077;BME280;4574;51.072;17.174;2023-07-31T04:39:50;99829.44;;;17.74;100.00
9077;BME280;4574;51.072;17.174;2023-07-31T04:42:18;99826.75;;;17.74;100.00
9077;BME280;4574;51.072;17.174;2023-07-31T04:44:47;99825.91;;;17.74;100.00
9077;BME280;4574;51.072;17.174;2023-07-31T04:47:15;99822.81;;;17.77;100.00
9077;BME280;4574;51.072;17.174;2023-07-31T04:49:45;99823.25;;;17.80;100.00
9077;BME280;4574;51.072;17.174;2023-07-31T04:52:13;99822.88;;;17.90;100.00
9077;BME280;4574;51.072;17.174;2023-07-31T04:54:42;99830.09;;;17.89;100.00
9077;BME280;4574;51.072;17.174;2023-07-31T04:57:10;99827.00;;;17.86;100.00
9077;BME280;4574;51.072;17.174;2023-07-31T04:59:39;99827.19;;;17.84;100.00
9077;BME280;4574;51.072;17.174;2023-07-31T05:02:08;99817.94;;;17.87;100.00
9077;BME280;4574;51.072;17.174;2023-07-31T05:04:37;99826.16;;;17.85;100.00
9077;BME280;4574;51.072;17.174;2023-07-31T05:07:06;99820.41;;;17.88;100.00
9077;BME280;4574;51.072;17.174;2023-07-31T05:09:35;99822.06;;;17.89;100.00
9077;BME280;4574;51.072;17.174;2023-07-31T05:12:04;99828.66;;;17.93;100.00
9077;BME280;4574;51.072;17.174;2023-07-31T05:14:33;99822.06;;;17.89;100.00
9077;BME280;4574;51.072;17.174;2023-07-31T05:17:02;99827.22;;;17.97;100.00
9077;BME280;4574;51.072;17.174;2023-07-31T05:19:31;99829.50;;;18.00;100.00
9077;BME280;4574;51.072;17.174;2023-07-31T05:21:59;99830.94;;;18.03;100.00
9077;BME280;4574;51.072;17.174;2023-07-31T05:24:29;99830.31;;;18.07;100.00
9077;BME280;4574;51.072;17.174;2023-07-31T05:26:57;99830.13;;;18.09;100.00
9077;BME280;4574;51.072;17.174;2023-07-31T05:29:27;99826.41;;;18.16;100.00
9077;BME280;4574;51.072;17.174;2023-07-31T05:31:56;99831.19;;;18.21;100.00
9077;BME280;4574;51.072;17.174;2023-07-31T05:34:24;99838.63;;;18.25;100.00
9077;BME280;4574;51.072;17.174;2023-07-31T05:36:53;99839.06;;;18.29;100.00
9077;BME280;4574;51.072;17.174;2023-07-31T05:39:21;99828.72;;;18.32;100.00
9077;BME280;4574;51.072;17.174;2023-07-31T05:41:51;99832.47;;;18.38;100.00
9077;BME280;4574;51.072;17.174;2023-07-31T05:44:20;99831.19;;;18.40;100.00
9077;BME280;4574;51.072;17.174;2023-07-31T05:46:48;99825.44;;;18.43;100.00
9077;BME280;4574;51.072;17.174;2023-07-31T05:49:17;99824.63;;;18.43;100.00
9077;BME280;4574;51.072;17.174;2023-07-31T05:51:45;99831.19;;;18.53;100.00
9077;BME280;4574;51.072;17.174;2023-07-31T05:54:14;99824.81;;;18.54;100.00
9077;BME280;4574;51.072;17.174;2023-07-31T05:56:42;99832.03;;;18.60;100.00
9077;BME280;4574;51.072;17.174;2023-07-31T05:59:12;99825.03;;;18.66;100.00
9077;BME280;4574;51.072;17.174;2023-07-31T06:01:41;99823.75;;;18.68;100.00
9077;BME280;4574;51.072;17.174;2023-07-31T06:04:10;99829.97;;;18.75;100.00
9077;BME280;4574;51.072;17.174;2023-07-31T06:06:38;99822.94;;;18.81;100.00
9077;BME280;4574;51.072;17.174;2023-07-31T06:09:08;99826.66;;;18.86;100.00
9077;BME280;4574;51.072;17.174;2023-07-31T06:11:36;99824.19;;;18.91;100.00
9077;BME280;4574;51.072;17.174;2023-07-31T06:14:04;99829.31;;;18.99;100.00
9077;BME280;4574;51.072;17.174;2023-07-31T06:16:34;99827.44;;;19.06;100.00
9077;BME280;4574;51.072;17.174;2023-07-31T06:19:03;99826.59;;;19.12;100.00
9077;BME280;4574;51.072;17.174;2023-07-31T06:21:32;99832.19;;;19.17;100.00
9077;BME280;4574;51.072;17.174;2023-07-31T06:24:03;99829.69;;;19.22;100.00
9077;BME280;4574;51.072;17.174;2023-07-31T06:26:36;99824.09;;;19.23;100.00
9077;BME280;4574;51.072;17.174;2023-07-31T06:29:05;99834.22;;;19.28;100.00
9077;BME280;4574;51.072;17.174;2023-07-31T06:31:35;99818.31;;;19.33;100.00
9077;BME280;4574;51.072;17.174;2023-07-31T06:34:06;99821.97;;;19.38;100.00
9077;BME280;4574;51.072;17.174;2023-07-31T06:36:35;99824.47;;;19.40;100.00
9077;BME280;4574;51.072;17.174;2023-07-31T06:39:04;99816.00;;;19.43;100.00
9077;BME280;4574;51.072;17.174;2023-07-31T06:41:32;99812.66;;;19.47;100.00
9077;BME280;4574;51.072;17.174;2023-07-31T06:44:01;99824.84;;;19.50;100.00
9077;BME280;4574;51.072;17.174;2023-07-31T06:46:30;99822.34;;;19.55;100.00
9077;BME280;4574;51.072;17.174;2023-07-31T06:49:00;99821.09;;;19.57;100.00
9077;BME280;4574;51.072;17.174;2023-07-31T06:51:28;99828.50;;;19.62;100.00
9077;BME280;4574;51.072;17.174;2023-07-31T06:53:58;99825.56;;;19.70;100.00
9077;BME280;4574;51.072;17.174;2023-07-31T06:56:27;99827.84;;;19.73;100.00
9077;BME280;4574;51.072;17.174;2023-07-31T06:58:55;99826.97;;;19.79;100.00
9077;BME280;4574;51.072;17.174;2023-07-31T07:01:24;99829.22;;;19.82;100.00
9077;BME280;4574;51.072;17.174;2023-07-31T07:03:52;99830.00;;;19.89;100.00
9077;BME280;4574;51.072;17.174;2023-07-31T07:06:22;99830.00;;;19.95;100.00
9077;BME280;4574;51.072;17.174;2023-07-31T07:08:51;99825.00;;;19.99;100.00
9077;BME280;4574;51.072;17.174;2023-07-31T07:11:20;99824.59;;;20.02;100.00
9077;BME280;4574;51.072;17.174;2023-07-31T07:13:48;99827.09;;;20.03;100.00
9077;BME280;4574;51.072;17.174;2023-07-31T07:16:17;99822.06;;;20.07;100.00
9077;BME280;4574;51.072;17.174;2023-07-31T07:18:45;99815.22;;;20.11;100.00
9077;BME280;4574;51.072;17.174;2023-07-31T07:21:31;99819.97;;;20.15;100.00
9077;BME280;4574;51.072;17.174;2023-07-31T07:24:00;99813.31;;;20.18;100.00
9077;BME280;4574;51.072;17.174;2023-07-31T07:26:28;99812.88;;;20.21;100.00
9077;BME280;4574;51.072;17.174;2023-07-31T07:28:57;99800.88;;;20.23;100.00
9077;BME280;4574;51.072;17.174;2023-07-31T07:31:28;99803.75;;;20.28;100.00
9077;BME280;4574;51.072;17.174;2023-07-31T07:33:57;99811.13;;;20.32;100.00
9077;BME280;4574;51.072;17.174;2023-07-31T07:36:27;99799.50;;;20.38;100.00
9077;BME280;4574;51.072;17.174;2023-07-31T07:38:57;99802.38;;;20.43;100.00
9077;BME280;4574;51.072;17.174;2023-07-31T07:41:26;99799.88;;;20.48;100.00
9077;BME280;4574;51.072;17.174;2023-07-31T07:43:54;99790.31;;;20.52;100.00
9077;BME280;4574;51.072;17.174;2023-07-31T07:46:23;99791.50;;;20.56;100.00
9077;BME280;4574;51.072;17.174;2023-07-31T07:48:51;99783.81;;;20.60;100.00
9077;BME280;4574;51.072;17.174;2023-07-31T07:51:20;99790.19;;;20.65;100.00
9077;BME280;4574;51.072;17.174;2023-07-31T07:53:48;99786.44;;;20.66;100.00
9077;BME280;4574;51.072;17.174;2023-07-31T07:56:19;99793.41;;;20.74;100.00
9077;BME280;4574;51.072;17.174;2023-07-31T07:58:48;99792.50;;;20.80;100.00
9077;BME280;4574;51.072;17.174;2023-07-31T08:01:17;99793.28;;;20.87;100.00
9077;BME280;4574;51.072;17.174;2023-07-31T08:03:46;99789.13;;;20.91;100.00
9077;BME280;4574;51.072;17.174;2023-07-31T08:06:15;99787.41;;;20.96;100.00
9077;BME280;4574;51.072;17.174;2023-07-31T08:08:44;99781.13;;;21.02;100.00
9077;BME280;4574;51.072;17.174;2023-07-31T08:11:13;99780.00;;;21.10;100.00
9077;BME280;4574;51.072;17.174;2023-07-31T08:13:42;99782.94;;;21.26;100.00
9077;BME280;4574;51.072;17.174;2023-07-31T08:16:11;99775.59;;;21.33;100.00
9077;BME280;4574;51.072;17.174;2023-07-31T08:18:40;99781.78;;;21.52;100.00
9077;BME280;4574;51.072;17.174;2023-07-31T08:21:09;99775.41;;;21.64;100.00
9077;BME280;4574;51.072;17.174;2023-07-31T08:23:38;99780.25;;;21.73;100.00
9077;BME280;4574;51.072;17.174;2023-07-31T08:26:07;99785.94;;;21.83;99.84
9077;BME280;4574;51.072;17.174;2023-07-31T08:28:36;99780.88;;;21.87;98.43
9077;BME280;4574;51.072;17.174;2023-07-31T08:31:06;99780.56;;;21.95;98.43
9077;BME280;4574;51.072;17.174;2023-07-31T08:33:34;99791.00;;;22.03;98.57
9077;BME280;4574;51.072;17.174;2023-07-31T08:36:04;99788.69;;;22.06;97.91
9077;BME280;4574;51.072;17.174;2023-07-31T08:38:32;99788.59;;;22.13;98.29
9077;BME280;4574;51.072;17.174;2023-07-31T08:41:03;99784.66;;;22.27;98.83
9077;BME280;4574;51.072;17.174;2023-07-31T08:43:32;99788.22;;;22.39;96.00
9077;BME280;4574;51.072;17.174;2023-07-31T08:46:02;99789.97;;;22.45;96.31
9077;BME280;4574;51.072;17.174;2023-07-31T08:48:32;99785.50;;;22.39;94.28
9077;BME280;4574;51.072;17.174;2023-07-31T08:51:01;99788.81;;;22.41;94.64
9077;BME280;4574;51.072;17.174;2023-07-31T08:53:30;99786.56;;;22.49;95.04
9077;BME280;4574;51.072;17.174;2023-07-31T08:55:59;99781.53;;;22.53;94.50
9077;BME280;4574;51.072;17.174;2023-07-31T08:58:30;99791.16;;;22.60;93.64
9077;BME280;4574;51.072;17.174;2023-07-31T09:01:01;99795.03;;;22.53;90.93
9077;BME280;4574;51.072;17.174;2023-07-31T09:03:34;99784.47;;;22.40;90.81
9077;BME280;4574;51.072;17.174;2023-07-31T09:06:05;99794.97;;;22.30;90.43
9077;BME280;4574;51.072;17.174;2023-07-31T09:08:34;99803.63;;;22.20;88.44
9077;BME280;4574;51.072;17.174;2023-07-31T09:11:03;99787.03;;;22.05;89.15
9077;BME280;4574;51.072;17.174;2023-07-31T09:13:32;99796.06;;;21.99;88.99
9077;BME280;4574;51.072;17.174;2023-07-31T09:16:01;99796.13;;;21.93;90.86
9077;BME280;4574;51.072;17.174;2023-07-31T09:18:52;99793.34;;;21.70;90.75
9077;BME280;4574;51.072;17.174;2023-07-31T09:21:21;99796.06;;;21.70;92.13
9077;BME280;4574;51.072;17.174;2023-07-31T09:23:50;99783.63;;;21.69;93.08
9077;BME280;4574;51.072;17.174;2023-07-31T09:26:31;99785.28;;;21.70;93.79
9077;BME280;4574;51.072;17.174;2023-07-31T09:29:01;99794.69;;;21.79;93.63
9077;BME280;4574;51.072;17.174;2023-07-31T09:31:39;99794.22;;;21.82;93.38
9077;BME280;4574;51.072;17.174;2023-07-31T09:34:10;99790.03;;;21.86;95.32
9077;BME280;4574;51.072;17.174;2023-07-31T09:36:41;99796.47;;;21.85;94.90
9077;BME280;4574;51.072;17.174;2023-07-31T09:39:11;99795.06;;;21.82;95.46
9077;BME280;4574;51.072;17.174;2023-07-31T09:41:41;99799.16;;;21.85;96.49
9077;BME280;4574;51.072;17.174;2023-07-31T09:44:10;99795.28;;;21.81;94.94
9077;BME280;4574;51.072;17.174;2023-07-31T09:46:39;99814.59;;;21.78;93.34
9077;BME280;4574;51.072;17.174;2023-07-31T09:49:10;99806.38;;;21.73;93.51
9077;BME280;4574;51.072;17.174;2023-07-31T09:51:40;99807.66;;;21.71;94.03
9077;BME280;4574;51.072;17.174;2023-07-31T09:54:10;99810.44;;;21.64;94.22
9077;BME280;4574;51.072;17.174;2023-07-31T09:56:43;99806.03;;;21.52;92.69
9077;BME280;4574;51.072;17.174;2023-07-31T09:59:13;99803.78;;;21.49;94.27
9077;BME280;4574;51.072;17.174;2023-07-31T10:01:43;99818.06;;;21.49;92.89
9077;BME280;4574;51.072;17.174;2023-07-31T10:04:15;99810.22;;;21.48;93.27
9077;BME280;4574;51.072;17.174;2023-07-31T10:06:46;99798.91;;;21.39;94.30
9077;BME280;4574;51.072;17.174;2023-07-31T10:09:18;99808.19;;;21.43;94.88
9077;BME280;4574;51.072;17.174;2023-07-31T10:11:52;99800.56;;;21.40;94.71
9077;BME280;4574;51.072;17.174;2023-07-31T10:14:24;99793.53;;;21.39;94.52
9077;BME280;4574;51.072;17.174;2023-07-31T10:16:54;99791.28;;;21.36;95.62
9077;BME280;4574;51.072;17.174;2023-07-31T10:19:26;99789.78;;;21.40;96.66
9077;BME280;4574;51.072;17.174;2023-07-31T10:21:56;99785.25;;;21.41;97.50
9077;BME280;4574;51.072;17.174;2023-07-31T10:24:27;99784.50;;;21.34;98.32
9077;BME280;4574;51.072;17.174;2023-07-31T10:26:57;99792.34;;;21.35;98.58
9077;BME280;4574;51.072;17.174;2023-07-31T10:29:27;99788.84;;;21.35;98.76
9077;BME280;4574;51.072;17.174;2023-07-31T10:31:58;99788.75;;;21.41;98.62
9077;BME280;4574;51.072;17.174;2023-07-31T10:34:29;99792.63;;;21.45;99.08
9077;BME280;4574;51.072;17.174;2023-07-31T10:37:22;99785.28;;;21.52;98.42
9077;BME280;4574;51.072;17.174;2023-07-31T10:39:58;99779.44;;;21.55;98.02
9077;BME280;4574;51.072;17.174;2023-07-31T10:42:31;99785.00;;;21.60;97.56
9077;BME280;4574;51.072;17.174;2023-07-31T10:45:02;99780.88;;;21.58;96.96
9077;BME280;4574;51.072;17.174;2023-07-31T10:47:31;99781.94;;;21.57;97.79
9077;BME280;4574;51.072;17.174;2023-07-31T10:50:17;99777.06;;;21.65;97.28
9077;BME280;4574;51.072;17.174;2023-07-31T10:52:47;99781.69;;;21.58;96.35
9077;BME280;4574;51.072;17.174;2023-07-31T10:55:28;99775.06;;;21.61;96.99
9077;BME280;4574;51.072;17.174;2023-07-31T10:58:06;99764.88;;;21.63;96.68
9077;BME280;4574;51.072;17.174;2023-07-31T11:00:37;99778.56;;;21.61;97.11
9077;BME280;4574;51.072;17.174;2023-07-31T11:03:07;99774.81;;;21.62;95.64
9077;BME280;4574;51.072;17.174;2023-07-31T11:05:43;99762.41;;;21.61;95.03
9077;BME280;4574;51.072;17.174;2023-07-31T11:08:14;99759.03;;;21.66;95.31
9077;BME280;4574;51.072;17.174;2023-07-31T11:10:44;99764.31;;;21.72;94.56
9077;BME280;4574;51.072;17.174;2023-07-31T11:13:13;99760.16;;;21.87;94.99
9077;BME280;4574;51.072;17.174;2023-07-31T11:15:41;99758.66;;;21.91;93.85
9077;BME280;4574;51.072;17.174;2023-07-31T11:18:10;99749.97;;;22.01;94.43
9077;BME280;4574;51.072;17.174;2023-07-31T11:20:38;99748.50;;;22.16;95.02
9077;BME280;4574;51.072;17.174;2023-07-31T11:23:10;99744.31;;;22.32;95.12
9077;BME280;4574;51.072;17.174;2023-07-31T11:25:39;99740.47;;;22.51;93.76
9077;BME280;4574;51.072;17.174;2023-07-31T11:28:10;99744.22;;;22.61;92.42
9077;BME280;4574;51.072;17.174;2023-07-31T11:30:39;99730.28;;;22.53;92.49
9077;BME280;4574;51.072;17.174;2023-07-31T11:33:10;99738.59;;;22.63;93.36
9077;BME280;4574;51.072;17.174;2023-07-31T11:35:43;99733.53;;;22.66;91.96
9077;BME280;4574;51.072;17.174;2023-07-31T11:38:21;99734.59;;;22.65;92.21
9077;BME280;4574;51.072;17.174;2023-07-31T11:40:51;99727.56;;;22.76;92.12
9077;BME280;4574;51.072;17.174;2023-07-31T11:43:20;99730.09;;;22.94;91.10
9077;BME280;4574;51.072;17.174;2023-07-31T11:45:51;99721.31;;;23.10;90.25
9077;BME280;4574;51.072;17.174;2023-07-31T11:48:21;99718.69;;;23.26;90.37
9077;BME280;4574;51.072;17.174;2023-07-31T11:50:51;99705.41;;;23.24;87.85
9077;BME280;4574;51.072;17.174;2023-07-31T11:53:25;99708.97;;;23.13;87.18
9077;BME280;4574;51.072;17.174;2023-07-31T11:55:56;99707.31;;;23.13;88.18
9077;BME280;4574;51.072;17.174;2023-07-31T11:58:26;99694.41;;;23.14;88.46
9077;BME280;4574;51.072;17.174;2023-07-31T12:00:56;99701.78;;;23.19;87.25
9077;BME280;4574;51.072;17.174;2023-07-31T12:03:25;99699.31;;;23.17;86.49
9077;BME280;4574;51.072;17.174;2023-07-31T12:05:54;99698.03;;;23.20;86.98
9077;BME280;4574;51.072;17.174;2023-07-31T12:08:24;99686.38;;;23.19;86.14
9077;BME280;4574;51.072;17.174;2023-07-31T12:10:54;99695.16;;;23.26;86.38
9077;BME280;4574;51.072;17.174;2023-07-31T12:13:24;99681.53;;;23.33;87.28
9077;BME280;4574;51.072;17.174;2023-07-31T12:15:55;99681.66;;;23.54;85.66
9077;BME280;4574;51.072;17.174;2023-07-31T12:18:29;99680.69;;;23.60;85.84
9077;BME280;4574;51.072;17.174;2023-07-31T12:21:00;99671.19;;;23.74;85.96
9077;BME280;4574;51.072;17.174;2023-07-31T12:23:32;99670.19;;;23.92;85.71
9077;BME280;4574;51.072;17.174;2023-07-31T12:26:05;99669.03;;;23.88;84.58
9077;BME280;4574;51.072;17.174;2023-07-31T12:28:40;99668.41;;;23.97;83.20
9077;BME280;4574;51.072;17.174;2023-07-31T12:31:10;99656.19;;;24.11;83.72
9077;BME280;4574;51.072;17.174;2023-07-31T12:33:40;99649.03;;;24.22;83.83
9077;BME280;4574;51.072;17.174;2023-07-31T12:36:10;99644.16;;;24.40;83.31
9077;BME280;4574;51.072;17.174;2023-07-31T12:38:41;99640.31;;;24.36;82.21
9077;BME280;4574;51.072;17.174;2023-07-31T12:41:11;99647.44;;;24.42;82.31
9077;BME280;4574;51.072;17.174;2023-07-31T12:43:41;99650.44;;;24.62;81.62
9077;BME280;4574;51.072;17.174;2023-07-31T12:46:10;99630.03;;;24.54;80.45
9077;BME280;4574;51.072;17.174;2023-07-31T12:48:40;99629.72;;;24.51;75.91
9077;BME280;4574;51.072;17.174;2023-07-31T12:51:09;99635.22;;;24.56;75.84
9077;BME280;4574;51.072;17.174;2023-07-31T12:53:37;99625.84;;;24.47;76.02
9077;BME280;4574;51.072;17.174;2023-07-31T12:56:07;99627.81;;;24.52;76.70
9077;BME280;4574;51.072;17.174;2023-07-31T12:58:35;99635.34;;;24.66;74.35
9077;BME280;4574;51.072;17.174;2023-07-31T13:01:04;99620.63;;;24.78;75.03
9077;BME280;4574;51.072;17.174;2023-07-31T13:03:33;99614.66;;;24.76;74.15
9077;BME280;4574;51.072;17.174;2023-07-31T13:06:03;99616.41;;;24.66;74.46
9077;BME280;4574;51.072;17.174;2023-07-31T13:08:32;99611.34;;;24.53;75.87
9077;BME280;4574;51.072;17.174;2023-07-31T13:11:01;99601.38;;;24.37;76.91
9077;BME280;4574;51.072;17.174;2023-07-31T13:13:30;99603.16;;;24.32;76.21
9077;BME280;4574;51.072;17.174;2023-07-31T13:15:59;99603.00;;;24.38;76.39
9077;BME280;4574;51.072;17.174;2023-07-31T13:18:28;99596.19;;;24.36;76.40